Latest Weather Observations for Banana Bank

IDQ60901

Issued at 7:51 am EST Tuesday 27 September 2022 (issued every 10 minutes, with the page automatically refreshed every 10 minutes)

About weather observations | Map of Brisbane area stations | Latest observations for Brisbane area | Other Formats
Station Details ID: 040925 Name: BANANA BANK NORTH BEACON Lat: -27.53 Lon: 153.33 Height: 7.0 m
Data from the previous 72 hours. | See also: Recent months at Banana Bank
Date/Time
EST
Temp
°C
App
Temp
°C
Dew
Point
°C
Rel
Hum
%
Delta-T
°C
Wind Press
QNH
hPa
Press
MSL
hPa
Rain since
9am
mm
Dir  Spd
km/h
Gust
km/h
Spd
kts
Gust
kts
27/07:30am - - - - - NNW 17 20 9 11 - - -
27/07:00am - - - - - NNW 19 20 10 11 - - -
27/06:30am - - - - - N 20 24 11 13 - - -
27/06:00am - - - - - N 20 24 11 13 - - -
27/05:30am - - - - - N 22 26 12 14 - - -
27/05:00am - - - - - N 22 26 12 14 - - -
27/04:30am - - - - - N 19 22 10 12 - - -
27/04:00am - - - - - N 19 24 10 13 - - -
27/03:30am - - - - - N 20 22 11 12 - - -
27/03:00am - - - - - N 20 24 11 13 - - -
27/02:30am - - - - - N 22 26 12 14 - - -
27/02:00am - - - - - NNE 20 24 11 13 - - -
27/01:30am - - - - - NNE 20 28 11 15 - - -
27/01:00am - - - - - NNE 20 26 11 14 - - -
27/12:30am - - - - - N 24 28 13 15 - - -
27/12:00am - - - - - N 20 24 11 13 - - -
 
Date/Time
EST
Temp
°C
App
Temp
°C
Dew
Point
°C
Rel
Hum
%
Delta-T
°C
Wind Press
QNH
hPa
Press
MSL
hPa
Rain since
9am
mm
Dir  Spd
km/h
Gust
km/h
Spd
kts
Gust
kts
26/11:30pm - - - - - N 22 28 12 15 - - -
26/11:00pm - - - - - NNE 20 26 11 14 - - -
26/10:30pm - - - - - N 22 28 12 15 - - -
26/10:00pm - - - - - NNE 20 24 11 13 - - -
26/09:30pm - - - - - N 20 24 11 13 - - -
26/09:00pm - - - - - N 22 26 12 14 - - -
26/08:30pm - - - - - N 22 26 12 14 - - -
26/08:00pm - - - - - N 22 26 12 14 - - -
26/07:30pm - - - - - N 20 24 11 13 - - -
26/07:00pm - - - - - N 20 26 11 14 - - -
26/06:30pm - - - - - NNE 20 26 11 14 - - -
26/06:00pm - - - - - NNE 19 24 10 13 - - -
26/05:30pm - - - - - NNE 20 24 11 13 - - -
26/05:00pm - - - - - NNE 19 24 10 13 - - -
26/04:30pm - - - - - NNE 19 24 10 13 - - -
26/04:00pm - - - - - NNE 24 28 13 15 - - -
26/03:30pm - - - - - NNE 24 28 13 15 - - -
26/03:00pm - - - - - NNE 20 26 11 14 - - -
26/02:30pm - - - - - NNE 20 24 11 13 - - -
26/02:00pm - - - - - NNE 19 24 10 13 - - -
26/01:30pm - - - - - N 19 22 10 12 - - -
26/01:00pm - - - - - N 15 17 8 9 - - -
26/12:30pm - - - - - N 13 17 7 9 - - -
26/12:00pm - - - - - N 17 20 9 11 - - -
26/11:30am - - - - - N 13 15 7 8 - - -
26/11:00am - - - - - N 13 13 7 7 - - -
26/10:30am - - - - - NNE 15 19 8 10 - - -
26/10:00am - - - - - N 6 7 3 4 - - -
26/09:30am - - - - - N 4 4 2 2 - - -
26/09:00am - - - - - WNW 2 4 1 2 - - -
26/08:30am - - - - - WNW 4 6 2 3 - - -
26/08:00am - - - - - W 6 7 3 4 - - -
26/07:30am - - - - - W 7 11 4 6 - - -
26/07:00am - - - - - WSW 7 9 4 5 - - -
26/06:30am - - - - - SW 4 6 2 3 - - -
26/06:00am - - - - - SW 6 6 3 3 - - -
26/05:30am - - - - - SW 6 7 3 4 - - -
26/05:00am - - - - - SW 7 13 4 7 - - -
26/04:30am - - - - - ESE 6 7 3 4 - - -
26/04:00am - - - - - SE 6 7 3 4 - - -
26/03:30am - - - - - SSW 4 6 2 3 - - -
26/03:00am - - - - - SSW 11 13 6 7 - - -
26/02:30am - - - - - SW 13 15 7 8 - - -
26/02:00am - - - - - NNE 4 6 2 3 - - -
26/01:30am - - - - - NE 7 7 4 4 - - -
26/01:00am - - - - - NE 7 9 4 5 - - -
26/12:30am - - - - - ENE 7 9 4 5 - - -
26/12:00am - - - - - ENE 9 11 5 6 - - -
 
Date/Time
EST
Temp
°C
App
Temp
°C
Dew
Point
°C
Rel
Hum
%
Delta-T
°C
Wind Press
QNH
hPa
Press
MSL
hPa
Rain since
9am
mm
Dir  Spd
km/h
Gust
km/h
Spd
kts
Gust
kts
25/11:30pm - - - - - ENE 9 11 5 6 - - -
25/11:00pm - - - - - E 9 11 5 6 - - -
25/10:30pm - - - - - ENE 11 13 6 7 - - -
25/10:00pm - - - - - ENE 11 11 6 6 - - -
25/09:30pm - - - - - ENE 9 11 5 6 - - -
25/09:00pm - - - - - ENE 11 15 6 8 - - -
25/08:30pm - - - - - ENE 11 13 6 7 - - -
25/08:00pm - - - - - NE 11 13 6 7 - - -
25/07:30pm - - - - - ENE 13 15 7 8 - - -
25/07:00pm - - - - - E 13 17 7 9 - - -
25/06:30pm - - - - - E 13 17 7 9 - - -
25/06:00pm - - - - - E 15 19 8 10 - - -
25/05:30pm - - - - - ENE 15 20 8 11 - - -
25/05:00pm - - - - - E 15 17 8 9 - - -
25/04:30pm - - - - - E 15 17 8 9 - - -
25/04:00pm - - - - - ESE 13 15 7 8 - - -
25/03:30pm - - - - - ESE 15 19 8 10 - - -
25/03:00pm - - - - - E 17 20 9 11 - - -
25/02:30pm - - - - - ESE 17 20 9 11 - - -
25/02:00pm - - - - - ESE 17 20 9 11 - - -
25/01:30pm - - - - - E 13 19 7 10 - - -
25/01:00pm - - - - - ESE 11 13 6 7 - - -
25/12:30pm - - - - - ESE 9 11 5 6 - - -
25/12:00pm - - - - - E 7 9 4 5 - - -
25/11:30am - - - - - CALM 0 2 0 1 - - -
25/11:00am - - - - - CALM 0 0 0 0 - - -
25/10:30am - - - - - CALM 0 0 0 0 - - -
25/10:00am - - - - - SE 4 4 2 2 - - -
25/09:30am - - - - - S 2 6 1 3 - - -
25/09:00am - - - - - SSW 7 11 4 6 - - -
25/08:30am - - - - - SW 6 6 3 3 - - -
25/08:00am - - - - - SW 11 17 6 9 - - -
25/07:30am - - - - - SW 15 19 8 10 - - -
25/07:00am - - - - - SW 11 17 6 9 - - -
25/06:30am - - - - - WSW 22 26 12 14 - - -
25/06:00am - - - - - WSW 20 24 11 13 - - -
25/05:30am - - - - - WSW 22 30 12 16 - - -
25/05:00am - - - - - WSW 19 24 10 13 - - -
25/04:30am - - - - - WSW 20 24 11 13 - - -
25/04:00am - - - - - WSW 20 24 11 13 - - -
25/03:30am - - - - - WSW 20 24 11 13 - - -
25/03:00am - - - - - WSW 15 19 8 10 - - -
25/02:30am - - - - - SW 15 17 8 9 - - -
25/02:00am - - - - - WSW 13 17 7 9 - - -
25/01:30am - - - - - WSW 4 9 2 5 - - -
25/01:00am - - - - - WSW 15 17 8 9 - - -
25/12:30am - - - - - WSW 15 19 8 10 - - -
25/12:00am - - - - - WSW 15 17 8 9 - - -
 
Date/Time
EST
Temp
°C
App
Temp
°C
Dew
Point
°C
Rel
Hum
%
Delta-T
°C
Wind Press
QNH
hPa
Press
MSL
hPa
Rain since
9am
mm
Dir  Spd
km/h
Gust
km/h
Spd
kts
Gust
kts
24/11:30pm - - - - - WSW 15 20 8 11 - - -
24/11:00pm - - - - - WSW 15 17 8 9 - - -
24/10:30pm - - - - - WSW 11 15 6 8 - - -
24/10:00pm - - - - - WSW 11 15 6 8 - - -
24/09:30pm - - - - - WNW 17 20 9 11 - - -
24/09:00pm - - - - - NNW 19 24 10 13 - - -
24/08:30pm - - - - - NNW 19 22 10 12 - - -
24/08:00pm - - - - - NNW 22 24 12 13 - - -
24/07:30pm - - - - - N 24 28 13 15 - - -
24/07:00pm - - - - - N 24 28 13 15 - - -
24/06:30pm - - - - - N 24 30 13 16 - - -
24/06:00pm - - - - - N 26 32 14 17 - - -
24/05:30pm - - - - - N 28 35 15 19 - - -
24/05:00pm - - - - - WNW 24 32 13 17 - - -
24/04:30pm - - - - - WNW 24 32 13 17 - - -
24/04:00pm - - - - - NW 20 26 11 14 - - -
24/03:30pm - - - - - WNW 24 33 13 18 - - -
24/03:00pm - - - - - WNW 22 32 12 17 - - -
24/02:30pm - - - - - WNW 19 24 10 13 - - -
24/02:15pm - - - - - WNW 28 35 15 19 - - -
24/02:00pm - - - - - NNW 7 17 4 9 - - -
24/01:30pm - - - - - NNW 13 17 7 9 - - -
24/01:00pm - - - - - N 17 26 9 14 - - -
24/12:30pm - - - - - N 17 24 9 13 - - -
24/12:00pm - - - - - WNW 19 22 10 12 - - -
24/11:30am - - - - - W 11 15 6 8 - - -
24/11:00am - - - - - W 11 19 6 10 - - -
24/10:30am - - - - - WNW 15 17 8 9 - - -
24/10:00am - - - - - WNW 15 20 8 11 - - -
24/09:30am - - - - - W 6 9 3 5 - - -
24/09:00am - - - - - W 9 13 5 7 - - -
24/08:30am - - - - - W 9 13 5 7 - - -
24/08:00am - - - - - WSW 11 15 6 8 - - -

Latest Capital City Observations: Canberra | Sydney | Melbourne | Brisbane | Adelaide | Perth | Hobart | Darwin

Other formats

Comma delimited format used in spreadsheet applications
http://www.bom.gov.au/fwo/IDQ60901/IDQ60901.94591.axf

JavaScript Object Notation format (JSON) in row-major order
http://www.bom.gov.au/fwo/IDQ60901/IDQ60901.94591.json

Data quality

Most of these data are generated automatically and are frequently updated. Quality checks on data are not normally performed. It is possible for incorrect values to appear. Refer to information at About Latest Weather Observations and please check the disclaimer before using these data.